Time;durP1;ratioP1;P1;durP2;ratioP2;P2;SDS_P1;SDS_P2;PMS_P1;PMS_P2;Temp;Humidity;BMP_temperature;BMP_pressure;BME280_temperature;BME280_humidity;BME280_pressure;Samples;Min_cycle;Max_cycle;Signal;HPM_P1;HPM_P2
2023/01/08 00:02:03;;;;;;;2.17;1.07;;;;;;;10.13;nan;100457.56;6264458;28;20522;-73
2023/01/08 00:05:24;;;;;;;1.77;1.67;;;;;;;10.26;nan;100467.03;6259935;28;20227;-73
2023/01/08 00:08:45;;;;;;;2.10;2.00;;;;;;;10.03;nan;100457.53;6262081;28;20595;-73
2023/01/08 00:12:08;;;;;;;1.10;1.10;;;;;;;10.07;nan;100453.56;6266162;28;20242;-73
2023/01/08 00:15:29;;;;;;;1.10;1.10;;;;;;;10.06;nan;100435.69;6268593;28;20231;-74
2023/01/08 00:18:50;;;;;;;1.60;1.50;;;;;;;10.15;nan;100431.31;6257251;28;20247;-74
2023/01/08 00:22:11;;;;;;;2.53;1.20;;;;;;;10.20;nan;100437.13;6255090;28;20238;-73
2023/01/08 00:25:32;;;;;;;2.93;1.90;;;;;;;10.27;nan;100439.09;6266354;28;20310;-73
2023/01/08 00:28:55;;;;;;;1.50;1.23;;;;;;;10.50;nan;100445.00;6257336;28;20223;-74
2023/01/08 00:32:15;;;;;;;2.07;1.63;;;;;;;10.14;nan;100429.59;6260001;28;20230;-73
2023/01/08 00:35:37;;;;;;;3.37;1.63;;;;;;;10.21;nan;100437.00;6272018;28;20239;-72
2023/01/08 00:38:59;;;;;;;5.17;1.60;;;;;;;10.38;nan;100414.69;6249770;28;20262;-73
2023/01/08 00:42:20;;;;;;;1.53;1.17;;;;;;;10.21;nan;100396.59;6261613;28;20235;-73
2023/01/08 00:45:42;;;;;;;3.17;1.73;;;;;;;10.42;nan;100404.47;6278463;28;20238;-75
2023/01/08 00:49:03;;;;;;;1.60;1.50;;;;;;;10.21;nan;100403.81;6260629;28;20255;-74
2023/01/08 00:52:24;;;;;;;1.30;1.20;;;;;;;10.21;nan;100390.34;6264271;28;20236;-74
2023/01/08 00:55:45;;;;;;;2.17;1.97;;;;;;;10.29;nan;100380.53;6272185;28;20231;-74
2023/01/08 00:59:06;;;;;;;1.93;1.30;;;;;;;10.25;nan;100386.34;6254186;28;20235;-74
2023/01/08 01:02:28;;;;;;;1.33;1.23;;;;;;;10.29;nan;100376.97;6248032;28;20314;-74
2023/01/08 01:05:49;;;;;;;1.47;1.47;;;;;;;9.96;nan;100401.69;6279848;28;20506;-74
2023/01/08 01:09:10;;;;;;;2.30;1.67;;;;;;;10.12;nan;100410.06;6249518;28;20228;-73
2023/01/08 01:12:30;;;;;;;2.67;1.93;;;;;;;10.12;nan;100410.06;6266451;28;20995;-72
2023/01/08 01:15:58;;;;;;;1.67;1.57;;;;;;;10.28;nan;100405.75;6277448;28;20235;-73
2023/01/08 01:19:20;;;;;;;1.63;1.53;;;;;;;10.34;nan;100407.03;6275717;28;20227;-73
2023/01/08 01:22:41;;;;;;;1.73;1.43;;;;;;;10.35;nan;100397.94;6251581;28;20243;-74
2023/01/08 01:26:02;;;;;;;1.83;1.53;;;;;;;10.16;nan;100416.84;6277735;28;20814;-73
2023/01/08 01:29:24;;;;;;;1.10;1.10;;;;;;;10.27;nan;100396.00;6268572;28;20325;-73
2023/01/08 01:32:51;;;;;;;2.30;1.47;;;;;;;10.31;nan;100392.00;6255955;28;20226;-73
2023/01/08 01:36:14;;;;;;;2.73;2.10;;;;;;;10.27;nan;100396.00;6268798;28;20227;-72
2023/01/08 01:39:35;;;;;;;1.43;1.33;;;;;;;10.36;nan;100386.19;6263556;28;20604;-74
2023/01/08 01:42:56;;;;;;;1.30;1.30;;;;;;;10.55;nan;100393.34;6267621;28;20247;-73
2023/01/08 01:46:27;;;;;;;1.50;1.40;;;;;;;10.57;nan;100377.88;6272537;28;20228;-73
2023/01/08 01:49:55;;;;;;;1.70;1.60;;;;;;;10.57;nan;100381.44;6275922;28;20231;-73
2023/01/08 01:53:21;;;;;;;1.60;1.50;;;;;;;10.81;nan;100380.88;6265269;28;20315;-73
2023/01/08 01:56:42;;;;;;;2.07;1.60;;;;;;;10.80;nan;100381.88;6262108;28;20789;-73
2023/01/08 02:00:06;;;;;;;2.80;1.57;;;;;;;10.59;nan;100376.75;6277335;28;20230;-74
2023/01/08 02:03:36;;;;;;;1.40;1.10;;;;;;;10.62;nan;100372.91;6267392;28;20231;-73
2023/01/08 02:07:03;;;;;;;2.40;2.20;;;;;;;10.95;nan;100372.31;6267100;28;20239;-74
2023/01/08 02:10:35;;;;;;;1.87;1.70;;;;;;;10.62;nan;100376.44;6267317;28;20255;-74
2023/01/08 02:14:05;;;;;;;1.47;1.37;;;;;;;10.75;nan;100368.84;6262641;28;20231;-73
2023/01/08 02:17:34;;;;;;;1.57;1.47;;;;;;;10.69;nan;100369.44;6266067;28;20224;-74
2023/01/08 02:21:00;;;;;;;1.57;1.47;;;;;;;10.96;nan;100364.06;6281054;28;20218;-74
2023/01/08 02:24:35;;;;;;;1.30;1.20;;;;;;;10.88;nan;100361.28;6278583;28;20235;-73
2023/01/08 02:28:01;;;;;;;1.57;1.47;;;;;;;10.80;nan;100360.31;6260815;28;20223;-73
2023/01/08 02:31:24;;;;;;;1.43;1.33;;;;;;;10.62;nan;100356.72;6259137;28;20314;-72
2023/01/08 02:34:45;;;;;;;4.20;2.17;;;;;;;10.66;nan;100350.03;6271017;28;20261;-73
2023/01/08 02:38:09;;;;;;;1.77;1.67;;;;;;;10.93;nan;100342.78;6258297;28;20223;-74
2023/01/08 02:41:40;;;;;;;1.23;1.10;;;;;;;10.84;nan;100329.34;6256987;28;21071;-73
2023/01/08 02:45:11;;;;;;;1.70;1.60;;;;;;;10.73;nan;100325.03;6268214;28;20822;-73
2023/01/08 02:48:38;;;;;;;1.97;1.33;;;;;;;10.74;nan;100320.47;6257653;28;20238;-73
2023/01/08 02:52:02;;;;;;;1.20;1.10;;;;;;;10.68;nan;100308.44;6257846;28;20248;-73
2023/01/08 02:55:27;;;;;;;1.87;1.77;;;;;;;10.71;nan;100310.00;6267639;28;21908;-73
2023/01/08 02:58:51;;;;;;;2.83;1.73;;;;;;;10.77;nan;100321.03;6265824;28;20608;-73
2023/01/08 03:02:13;;;;;;;2.60;1.60;;;;;;;10.66;nan;100323.09;6261546;28;20315;-73
2023/01/08 03:05:35;;;;;;;2.20;1.63;;;;;;;10.86;nan;100327.34;6274569;28;20235;-74
2023/01/08 03:08:57;;;;;;;3.70;1.77;;;;;;;10.75;nan;100339.19;6266269;28;20306;-73
2023/01/08 03:12:23;;;;;;;1.50;1.30;;;;;;;10.62;nan;100343.25;6261870;28;20314;-74
2023/01/08 03:15:49;;;;;;;2.17;1.53;;;;;;;10.74;nan;100345.59;6278524;28;20223;-73
2023/01/08 03:19:16;;;;;;;1.67;1.57;;;;;;;10.70;nan;100344.19;6243805;28;20239;-74
2023/01/08 03:22:40;;;;;;;2.40;2.17;;;;;;;10.63;nan;100329.63;6266619;28;20230;-74
2023/01/08 03:26:03;;;;;;;1.67;1.53;;;;;;;10.88;nan;100322.66;6278776;28;20231;-74
2023/01/08 03:29:26;;;;;;;2.00;1.70;;;;;;;10.58;nan;100337.28;6273246;28;20227;-73
2023/01/08 03:32:49;;;;;;;1.97;1.40;;;;;;;10.96;nan;100339.78;6257119;28;20235;-74
2023/01/08 03:36:15;;;;;;;1.73;1.30;;;;;;;10.56;nan;100333.03;6266864;28;20238;-74
2023/01/08 03:39:41;;;;;;;1.40;1.30;;;;;;;10.81;nan;100329.66;6271242;28;20330;-74
2023/01/08 03:43:02;;;;;;;2.07;1.57;;;;;;;10.64;nan;100315.13;6242946;28;20500;-73
2023/01/08 03:46:29;;;;;;;3.20;2.07;;;;;;;10.43;nan;100328.00;6266040;28;20517;-73
2023/01/08 03:49:52;;;;;;;1.37;1.30;;;;;;;10.50;nan;100334.50;6274134;28;20234;-73
2023/01/08 03:53:14;;;;;;;1.57;1.47;;;;;;;10.44;nan;100321.63;6261835;28;20257;-73
2023/01/08 03:56:35;;;;;;;1.73;1.63;;;;;;;10.79;nan;100328.94;6261949;28;20259;-73
2023/01/08 03:59:56;;;;;;;1.40;1.30;;;;;;;10.75;nan;100327.56;6258807;28;20235;-73
2023/01/08 04:03:17;;;;;;;1.77;1.67;;;;;;;10.98;nan;100321.59;6254111;28;20227;-73
2023/01/08 04:06:38;;;;;;;1.40;1.40;;;;;;;10.80;nan;100331.53;6269054;28;20235;-73
2023/01/08 04:10:00;;;;;;;3.77;2.13;;;;;;;11.00;nan;100326.84;6275516;28;20732;-73
2023/01/08 04:13:21;;;;;;;1.63;1.17;;;;;;;10.91;nan;100320.50;6260420;28;20232;-72
2023/01/08 04:16:42;;;;;;;1.73;1.63;;;;;;;10.70;nan;100317.22;6265053;28;20226;-73
2023/01/08 04:20:04;;;;;;;2.50;2.07;;;;;;;10.61;nan;100310.06;6276694;28;20314;-73
2023/01/08 04:23:25;;;;;;;1.80;1.33;;;;;;;10.76;nan;100295.06;6260889;28;20230;-73
2023/01/08 04:26:48;;;;;;;2.87;2.03;;;;;;;11.02;nan;100300.56;6266274;28;20267;-74
2023/01/08 04:30:11;;;;;;;1.63;1.47;;;;;;;10.75;nan;100295.22;6269315;28;20243;-74
2023/01/08 04:33:32;;;;;;;1.70;1.60;;;;;;;10.83;nan;100292.59;6273732;28;20227;-73
2023/01/08 04:36:53;;;;;;;1.00;0.93;;;;;;;10.76;nan;100286.13;6271016;28;20222;-73
2023/01/08 04:40:14;;;;;;;1.60;1.50;;;;;;;10.74;nan;100282.75;6260613;28;20538;-73
2023/01/08 04:43:36;;;;;;;0.87;0.87;;;;;;;10.85;nan;100274.41;6267478;28;20235;-73
2023/01/08 04:46:57;;;;;;;2.67;1.90;;;;;;;10.87;nan;100269.72;6253739;28;20260;-74
2023/01/08 04:50:18;;;;;;;1.70;1.60;;;;;;;11.01;nan;100269.22;6279364;28;20230;-73
2023/01/08 04:53:39;;;;;;;1.93;1.83;;;;;;;10.91;nan;100271.13;6267742;28;20262;-74
2023/01/08 04:57:00;;;;;;;2.17;1.97;;;;;;;11.08;nan;100263.03;6265632;28;20703;-73
2023/01/08 05:00:22;;;;;;;6.13;2.17;;;;;;;10.91;nan;100253.06;6268117;28;20250;-74
2023/01/08 05:03:43;;;;;;;1.90;1.80;;;;;;;10.99;nan;100253.16;6272386;28;20239;-74
2023/01/08 05:07:04;;;;;;;14.73;2.57;;;;;;;10.84;nan;100259.25;6268436;28;20223;-74
2023/01/08 05:10:25;;;;;;;2.40;1.80;;;;;;;10.87;nan;100243.59;6276590;28;20509;-74
2023/01/08 05:13:47;;;;;;;2.13;1.50;;;;;;;11.14;nan;100242.66;6266727;28;20227;-74
2023/01/08 05:17:09;;;;;;;1.50;1.03;;;;;;;11.04;nan;100248.16;6249080;28;20215;-74
2023/01/08 05:20:31;;;;;;;1.70;1.53;;;;;;;11.11;nan;100248.38;6274462;28;20223;-74
2023/01/08 05:23:52;;;;;;;1.80;1.70;;;;;;;10.97;nan;100249.75;6245363;28;20251;-74
2023/01/08 05:27:13;;;;;;;3.20;2.17;;;;;;;10.96;nan;100245.38;6266931;28;20263;-73
2023/01/08 05:30:36;;;;;;;1.83;1.73;;;;;;;11.05;nan;100255.25;6278202;28;20231;-73
2023/01/08 05:33:59;;;;;;;2.87;1.70;;;;;;;10.90;nan;100250.53;6268425;28;20362;-73
2023/01/08 05:37:20;;;;;;;2.43;2.10;;;;;;;11.14;nan;100250.75;6266671;28;20235;-73
2023/01/08 05:40:41;;;;;;;1.70;1.60;;;;;;;11.12;nan;100248.22;6276053;28;20247;-73
2023/01/08 05:44:02;;;;;;;2.80;2.43;;;;;;;11.21;nan;100247.31;6267584;28;20230;-73
2023/01/08 05:47:22;;;;;;;1.60;1.50;;;;;;;11.15;nan;100244.38;6266198;28;20227;-73
2023/01/08 05:50:45;;;;;;;1.33;1.23;;;;;;;10.98;nan;100246.09;6278106;28;20223;-74
2023/01/08 05:54:06;;;;;;;1.83;1.73;;;;;;;11.04;nan;100250.84;6275019;28;20227;-73
2023/01/08 05:57:27;;;;;;;1.50;1.40;;;;;;;11.20;nan;100242.91;6264669;28;20306;-73
2023/01/08 06:00:48;;;;;;;1.80;1.70;;;;;;;11.23;nan;100237.22;6261429;28;20232;-73
2023/01/08 06:04:08;;;;;;;1.20;1.10;;;;;;;11.40;nan;100240.03;6251759;28;20251;-74
2023/01/08 06:07:31;;;;;;;1.60;1.50;;;;;;;11.24;nan;100241.59;6268169;28;20633;-73
2023/01/08 06:10:51;;;;;;;1.57;1.47;;;;;;;11.11;nan;100245.69;6274426;28;20536;-73
2023/01/08 06:14:14;;;;;;;1.33;1.23;;;;;;;11.15;nan;100239.84;6271448;28;20227;-72
2023/01/08 06:17:35;;;;;;;2.53;1.30;;;;;;;11.19;nan;100227.72;6265167;28;20231;-73
2023/01/08 06:20:56;;;;;;;2.13;2.03;;;;;;;11.08;nan;100237.91;6260700;28;20211;-72
2023/01/08 06:24:18;;;;;;;3.80;1.20;;;;;;;11.04;nan;100240.06;6276820;28;20247;-73
2023/01/08 06:27:39;;;;;;;4.23;2.37;;;;;;;11.17;nan;100229.75;6266411;28;20321;-74
2023/01/08 06:31:00;;;;;;;1.30;1.30;;;;;;;11.20;nan;100233.97;6272808;28;20243;-73
2023/01/08 06:34:21;;;;;;;1.57;1.20;;;;;;;11.34;nan;100240.66;6283263;28;21111;-73
2023/01/08 06:37:42;;;;;;;1.77;1.67;;;;;;;11.43;nan;100240.53;6266278;28;20227;-73
2023/01/08 06:41:07;;;;;;;2.90;1.53;;;;;;;11.43;nan;100235.16;6277263;28;20219;-73
2023/01/08 06:44:28;;;;;;;1.57;1.47;;;;;;;11.10;nan;100228.66;6279374;28;20223;-72
2023/01/08 06:47:49;;;;;;;1.50;1.17;;;;;;;11.24;nan;100232.66;6258047;28;20235;-73
2023/01/08 06:51:10;;;;;;;1.60;1.20;;;;;;;11.11;nan;100229.50;6257717;28;20227;-73
2023/01/08 06:54:31;;;;;;;1.10;1.00;;;;;;;10.90;nan;100229.81;6270697;28;20239;-73
2023/01/08 06:57:55;;;;;;;3.07;1.77;;;;;;;11.07;nan;100228.97;6263900;28;20939;-73
2023/01/08 07:01:16;;;;;;;1.57;1.47;;;;;;;11.24;nan;100232.66;6263072;28;20235;-73
2023/01/08 07:04:37;;;;;;;1.20;1.13;;;;;;;11.15;nan;100214.69;6261866;28;20235;-72
2023/01/08 07:07:58;;;;;;;1.00;0.90;;;;;;;11.21;nan;100217.63;6256140;28;20227;-70
2023/01/08 07:11:19;;;;;;;1.23;1.13;;;;;;;11.12;nan;100221.25;6256631;28;20232;-74
2023/01/08 07:14:41;;;;;;;1.20;1.10;;;;;;;11.25;nan;100224.41;6260303;28;20223;-75
2023/01/08 07:18:04;;;;;;;3.33;1.83;;;;;;;11.29;nan;100214.13;6257845;28;20228;-74
2023/01/08 07:21:25;;;;;;;2.03;1.53;;;;;;;11.72;nan;100218.69;6241094;28;20221;-76
2023/01/08 07:24:46;;;;;;;1.23;1.13;;;;;;;11.68;nan;100209.22;6255548;28;20251;-75
2023/01/08 07:28:11;;;;;;;1.40;1.30;;;;;;;11.92;nan;100217.44;6234070;28;20215;-74
2023/01/08 07:31:33;;;;;;;1.93;1.33;;;;;;;11.70;nan;100208.03;6253159;28;20961;-75
2023/01/08 07:34:57;;;;;;;2.03;1.27;;;;;;;12.17;nan;100207.59;6267587;28;20231;-74
2023/01/08 07:38:19;;;;;;;2.40;1.57;;;;;;;11.45;nan;100203.47;6255323;28;20350;-73
2023/01/08 07:41:39;;;;;;;2.17;1.97;;;;;;;11.64;nan;100205.13;6231516;28;20231;-74
2023/01/08 07:45:00;;;;;;;2.30;2.00;;;;;;;11.65;nan;100204.09;6277160;28;20643;-73
2023/01/08 07:48:23;;;;;;;1.77;1.63;;;;;;;11.49;nan;100195.91;6258790;28;20619;-73
2023/01/08 07:51:44;;;;;;;1.67;1.57;;;;;;;11.30;nan;100199.66;6258919;28;20226;-74
2023/01/08 07:55:05;;;;;;;1.57;1.47;;;;;;;11.19;nan;100197.19;6275396;28;22304;-74
2023/01/08 07:58:26;;;;;;;2.00;1.87;;;;;;;11.10;nan;100196.28;6267848;28;20231;-74
2023/01/08 08:01:47;;;;;;;1.27;1.17;;;;;;;11.14;nan;100192.28;6257567;28;20266;-73
2023/01/08 08:05:09;;;;;;;1.93;1.83;;;;;;;10.93;nan;100188.22;6278577;28;20227;-74
2023/01/08 08:08:30;;;;;;;1.53;1.43;;;;;;;11.07;nan;100193.91;6260253;28;20271;-74
2023/01/08 08:11:51;;;;;;;1.50;1.40;;;;;;;10.93;nan;100196.31;6264525;28;20327;-74
2023/01/08 08:15:12;;;;;;;2.63;1.90;;;;;;;11.05;nan;100201.31;6262026;28;20231;-75
2023/01/08 08:18:33;;;;;;;1.50;1.40;;;;;;;10.90;nan;100194.78;6249422;28;21029;-74
2023/01/08 08:21:55;;;;;;;1.23;1.23;;;;;;;11.10;nan;100190.88;6229572;28;20518;-73
2023/01/08 08:25:19;;;;;;;2.63;1.67;;;;;;;11.09;nan;100189.22;6258059;28;20231;-72
2023/01/08 08:28:40;;;;;;;1.43;0.93;;;;;;;11.03;nan;100184.44;6266081;28;20223;-74
2023/01/08 08:32:01;;;;;;;1.47;1.37;;;;;;;10.76;nan;100189.06;6266153;28;20219;-74
2023/01/08 08:35:22;;;;;;;1.80;1.37;;;;;;;11.04;nan;100186.13;6279504;28;20223;-74
2023/01/08 08:38:44;;;;;;;1.50;1.40;;;;;;;10.94;nan;100181.81;6258553;28;20271;-76
2023/01/08 08:42:06;;;;;;;2.00;1.80;;;;;;;10.81;nan;100178.66;6268181;28;20511;-73
2023/01/08 08:45:27;;;;;;;2.10;2.00;;;;;;;11.19;nan;100183.72;6275285;28;20232;-74
2023/01/08 08:48:47;;;;;;;1.93;1.50;;;;;;;11.06;nan;100180.56;6267562;28;20251;-74
2023/01/08 08:52:08;;;;;;;1.87;1.77;;;;;;;10.99;nan;100177.63;6246696;28;20243;-74
2023/01/08 08:55:31;;;;;;;2.17;1.90;;;;;;;10.97;nan;100178.81;6261973;28;20236;-74
2023/01/08 08:58:52;;;;;;;4.00;2.10;;;;;;;10.80;nan;100185.06;6265126;28;20231;-75
2023/01/08 09:02:13;;;;;;;2.30;1.70;;;;;;;10.76;nan;100178.28;6264019;28;20985;-75
2023/01/08 09:05:36;;;;;;;1.50;1.40;;;;;;;10.78;nan;100179.00;6259379;28;20601;-76
2023/01/08 09:08:56;;;;;;;1.93;1.77;;;;;;;10.69;nan;100188.84;6249722;28;20239;-77
2023/01/08 09:12:19;;;;;;;1.60;1.50;;;;;;;10.55;nan;100188.53;6261689;28;20338;-76
2023/01/08 09:15:40;;;;;;;2.00;1.83;;;;;;;10.83;nan;100185.59;6269534;28;20231;-76
2023/01/08 09:19:00;;;;;;;3.53;2.10;;;;;;;10.82;nan;100186.63;6248702;28;20534;-75
2023/01/08 09:22:21;;;;;;;2.13;2.03;;;;;;;10.77;nan;100186.22;6268553;28;20250;-74
2023/01/08 09:25:42;;;;;;;2.30;1.40;;;;;;;10.79;nan;100199.53;6270342;28;20842;-75
2023/01/08 09:29:05;;;;;;;2.37;1.40;;;;;;;10.80;nan;100191.31;6260233;28;20258;-74
2023/01/08 09:32:26;;;;;;;2.53;2.23;;;;;;;10.77;nan;100188.91;6246793;28;20571;-74
2023/01/08 09:35:47;;;;;;;3.10;2.57;;;;;;;10.63;nan;100197.53;6264708;28;20236;-74
2023/01/08 09:39:09;;;;;;;2.70;1.50;;;;;;;10.70;nan;100184.31;6244636;28;20306;-73
2023/01/08 09:42:31;;;;;;;3.10;1.60;;;;;;;10.79;nan;100176.13;6262628;28;20231;-74
2023/01/08 09:45:57;;;;;;;1.57;1.43;;;;;;;10.75;nan;100173.88;6251168;28;20262;-75
2023/01/08 09:49:28;;;;;;;1.77;1.60;;;;;;;10.82;nan;100177.69;6280132;28;20250;-74
2023/01/08 09:52:49;;;;;;;1.53;1.43;;;;;;;10.65;nan;100170.44;6254536;28;20562;-75
2023/01/08 09:56:13;;;;;;;2.20;2.00;;;;;;;10.68;nan;100160.19;6272544;28;20497;-73
2023/01/08 09:59:33;;;;;;;1.27;1.17;;;;;;;10.71;nan;100161.72;6260162;28;20604;-73
2023/01/08 10:02:56;;;;;;;1.33;1.23;;;;;;;10.88;nan;100169.81;6255148;28;20232;-75
2023/01/08 10:06:17;;;;;;;1.20;1.10;;;;;;;11.09;nan;100167.63;6259537;28;20549;-73
2023/01/08 10:09:40;;;;;;;3.03;2.03;;;;;;;10.77;nan;100178.13;6266428;28;20231;-75
2023/01/08 10:13:01;;;;;;;1.40;1.30;;;;;;;10.68;nan;100170.97;6251005;28;20219;-74
2023/01/08 10:16:29;;;;;;;1.37;1.10;;;;;;;10.86;nan;100173.66;6248703;28;20254;-74
2023/01/08 10:19:51;;;;;;;1.47;1.33;;;;;;;11.04;nan;100161.84;6256934;28;20322;-74
2023/01/08 10:23:14;;;;;;;1.93;1.77;;;;;;;10.80;nan;100175.13;6259922;28;20312;-73
2023/01/08 10:26:38;;;;;;;2.20;1.27;;;;;;;10.86;nan;100161.03;6259738;28;20628;-77
2023/01/08 10:30:05;;;;;;;1.90;1.47;;;;;;;10.76;nan;100172.91;6273135;28;20235;-75
2023/01/08 10:33:30;;;;;;;1.60;1.50;;;;;;;10.92;nan;100160.41;6267989;28;20314;-74
2023/01/08 10:36:53;;;;;;;3.50;1.40;;;;;;;10.99;nan;100160.63;6251327;28;20236;-77
2023/01/08 10:40:23;;;;;;;1.33;1.27;;;;;;;10.94;nan;100155.72;6268011;28;20243;-77
2023/01/08 10:43:51;;;;;;;1.17;0.83;;;;;;;10.67;nan;100157.66;6258387;28;20608;-74
2023/01/08 10:47:18;;;;;;;1.50;1.40;;;;;;;10.71;nan;100146.41;6260484;28;20659;-75
2023/01/08 10:50:38;;;;;;;3.70;1.60;;;;;;;10.88;nan;100148.25;6276259;28;20227;-76
2023/01/08 10:54:14;;;;;;;2.80;1.37;;;;;;;10.59;nan;100136.88;6262352;28;20231;-74
2023/01/08 10:57:35;;;;;;;1.10;1.00;;;;;;;10.83;nan;100115.50;6252859;28;20807;-78
2023/01/08 11:01:09;;;;;;;0.90;0.90;;;;;;;11.01;nan;100120.88;6275055;28;20311;-76
2023/01/08 11:04:32;;;;;;;2.53;1.20;;;;;;;11.22;nan;100106.00;6272752;28;20227;-75
2023/01/08 11:07:57;;;;;;;1.23;1.17;;;;;;;10.98;nan;100130.13;6267544;28;20235;-74
2023/01/08 11:11:20;;;;;;;1.63;1.40;;;;;;;10.74;nan;100142.56;6255895;28;20226;-76
2023/01/08 11:14:45;;;;;;;1.30;1.20;;;;;;;10.56;nan;100136.31;6280096;28;20250;-74
2023/01/08 11:18:14;;;;;;;2.10;1.47;;;;;;;11.05;nan;100141.13;6268750;28;20219;-74
2023/01/08 11:21:35;;;;;;;2.97;2.77;;;;;;;10.94;nan;100149.47;6262300;28;20233;-75
2023/01/08 11:24:57;;;;;;;1.70;1.60;;;;;;;10.93;nan;100145.91;6274143;28;20243;-73
2023/01/08 11:28:28;;;;;;;2.23;1.90;;;;;;;10.85;nan;100151.25;6255746;28;20232;-74
2023/01/08 11:31:55;;;;;;;1.50;1.40;;;;;;;11.31;nan;100131.19;6263114;28;20232;-75
2023/01/08 11:35:21;;;;;;;2.20;1.90;;;;;;;12.74;nan;100123.78;6264093;28;20242;-74
2023/01/08 11:38:42;;;;;;;2.90;2.70;;;;;;;12.31;nan;100121.34;6255611;28;20231;-74
2023/01/08 11:42:19;;;;;;;2.67;2.00;;;;;;;12.53;nan;100100.94;6241255;28;20520;-75
2023/01/08 11:45:57;;;;;;;5.13;1.30;;;;;;;17.27;nan;100089.78;6271800;28;20231;-74
2023/01/08 11:49:44;;;;;;;1.40;1.30;;;;;;;18.35;nan;100083.44;6263922;28;20565;-68
2023/01/08 11:53:17;;;;;;;1.55;1.45;;;;;;;18.29;nan;100078.78;6254516;28;20231;-68
2023/01/08 11:57:04;;;;;;;3.03;2.25;;;;;;;19.26;nan;100078.28;6252138;28;20238;-70
2023/01/08 12:00:41;;;;;;;2.08;1.17;;;;;;;20.89;nan;100063.13;6266558;28;20255;-68
2023/01/08 12:04:28;;;;;;;1.45;1.35;;;;;;;22.54;nan;100058.38;6254688;28;20341;-67
2023/01/08 12:07:58;;;;;;;2.88;1.80;;;;;;;20.62;nan;100055.09;6249313;28;20628;-67
2023/01/08 12:11:24;;;;;;;2.70;1.33;;;;;;;18.28;nan;100074.38;6247938;28;20222;-69
2023/01/08 12:15:01;;;;;;;1.05;1.00;;;;;;;20.05;nan;100057.09;6257541;28;21323;-68
2023/01/08 12:19:04;;;;;;;4.32;0.98;;;;;;;19.05;nan;100073.88;6264495;28;20231;-70
2023/01/08 12:22:38;;;;;;;1.42;1.33;;;;;;;17.05;nan;100061.72;6171674;28;20234;-67
2023/01/08 12:26:11;;;;;;;1.35;1.25;;;;;;;16.14;nan;100077.13;6208705;28;20230;-68
2023/01/08 12:29:50;;;;;;;1.90;1.35;;;;;;;16.74;nan;100062.09;6261189;28;20235;-68
2023/01/08 12:33:18;;;;;;;2.22;1.10;;;;;;;17.95;nan;100056.22;6259457;28;20234;-74
2023/01/08 12:36:42;;;;;;;4.80;1.27;;;;;;;16.88;nan;100052.16;6252360;28;20254;-74
2023/01/08 12:40:13;;;;;;;1.35;1.25;;;;;;;14.23;nan;100050.72;6256376;28;20247;-75
2023/01/08 12:43:46;;;;;;;2.13;1.30;;;;;;;13.85;nan;100055.16;6243694;28;20597;-75
2023/01/08 12:47:16;;;;;;;0.80;0.70;;;;;;;13.57;nan;100040.41;6237693;28;20231;-77
2023/01/08 12:50:44;;;;;;;5.97;1.27;;;;;;;13.43;nan;100050.09;6251848;28;20226;-77
2023/01/08 12:54:14;;;;;;;4.10;1.33;;;;;;;14.19;nan;100033.13;6243960;28;20231;-78
2023/01/08 12:57:41;;;;;;;1.00;1.00;;;;;;;15.14;nan;100032.50;6254892;28;20667;-77
2023/01/08 13:01:16;;;;;;;3.57;1.70;;;;;;;14.33;nan;100035.94;6268430;28;20227;-77
2023/01/08 13:04:42;;;;;;;2.20;2.00;;;;;;;13.63;nan;100045.13;6261298;28;20230;-75
2023/01/08 13:08:05;;;;;;;1.20;1.10;;;;;;;13.78;nan;100031.69;6259190;28;20676;-76
2023/01/08 13:11:28;;;;;;;1.27;1.17;;;;;;;13.54;nan;100019.94;6243560;28;20458;-75
2023/01/08 13:14:52;;;;;;;1.43;0.90;;;;;;;14.83;nan;100020.94;6270358;28;20238;-76
2023/01/08 13:18:18;;;;;;;1.43;1.10;;;;;;;15.13;nan;100015.34;6262446;28;20788;-76
2023/01/08 13:21:42;;;;;;;1.17;1.07;;;;;;;13.86;nan;100002.69;6264930;28;20230;-75
2023/01/08 13:25:33;;;;;;;0.77;0.77;;;;;;;14.69;nan;99994.59;6277165;28;20247;-76
2023/01/08 13:28:54;;;;;;;1.07;1.07;;;;;;;15.09;nan;99989.59;6265213;28;20326;-76
2023/01/08 13:32:37;;;;;;;1.63;1.53;;;;;;;13.84;nan;99988.47;6262890;28;20223;-76
2023/01/08 13:36:16;;;;;;;11.70;2.03;;;;;;;13.19;nan;99989.78;6272895;28;20501;-74
2023/01/08 13:39:38;;;;;;;1.10;1.10;;;;;;;13.39;nan;99986.50;6285015;28;20235;-75
2023/01/08 13:43:00;;;;;;;2.10;1.20;;;;;;;14.33;nan;99983.59;6272069;28;20515;-76
2023/01/08 13:46:21;;;;;;;1.63;1.53;;;;;;;13.62;nan;99967.63;6262761;28;20227;-74
2023/01/08 13:49:45;;;;;;;1.23;1.13;;;;;;;14.11;nan;99971.69;6286403;28;20227;-76
2023/01/08 13:53:06;;;;;;;2.10;0.87;;;;;;;13.79;nan;99962.94;6278331;28;20226;-76
2023/01/08 13:56:27;;;;;;;3.83;1.60;;;;;;;13.83;nan;99967.81;6268469;28;20227;-75
2023/01/08 13:59:51;;;;;;;0.77;0.77;;;;;;;13.17;nan;99971.03;6280412;28;20228;-75
2023/01/08 14:03:25;;;;;;;3.13;1.10;;;;;;;12.46;nan;99960.19;6268650;28;20228;-75
2023/01/08 14:06:47;;;;;;;7.07;1.87;;;;;;;12.64;nan;99966.22;6271885;28;20913;-75
2023/01/08 14:10:13;;;;;;;1.70;1.30;;;;;;;12.22;nan;99960.22;6278533;28;20508;-74
2023/01/08 14:13:36;;;;;;;3.33;1.00;;;;;;;11.99;nan;99964.59;6265551;28;20255;-74
2023/01/08 14:16:57;;;;;;;1.63;1.13;;;;;;;11.89;nan;99962.03;6266056;28;20218;-73
2023/01/08 14:20:24;;;;;;;1.57;1.37;;;;;;;11.69;nan;99965.22;6279617;28;20314;-75
2023/01/08 14:23:49;;;;;;;1.40;1.30;;;;;;;11.71;nan;99950.53;6273181;28;20794;-73
2023/01/08 14:27:21;;;;;;;1.07;0.70;;;;;;;11.54;nan;99970.38;6272031;28;20235;-75
2023/01/08 14:30:47;;;;;;;3.03;1.47;;;;;;;11.40;nan;99967.47;6251016;28;20246;-76
2023/01/08 14:34:10;;;;;;;1.30;1.20;;;;;;;11.45;nan;99960.59;6267703;28;20227;-75
2023/01/08 14:37:31;;;;;;;5.37;1.80;;;;;;;11.50;nan;99965.47;6263604;28;20227;-74
2023/01/08 14:41:02;;;;;;;1.43;0.90;;;;;;;11.54;nan;99970.38;6272018;28;20260;-74
2023/01/08 14:44:25;;;;;;;3.60;0.87;;;;;;;11.52;nan;99961.59;6275297;28;20235;-75
2023/01/08 14:47:48;;;;;;;2.47;2.23;;;;;;;11.49;nan;99967.34;6263314;28;20236;-75
2023/01/08 14:51:13;;;;;;;1.63;1.00;;;;;;;11.40;nan;99967.47;6266518;28;20246;-75
2023/01/08 14:54:36;;;;;;;2.67;1.27;;;;;;;11.46;nan;99964.94;6268198;28;20259;-74
2023/01/08 14:57:58;;;;;;;3.83;1.43;;;;;;;11.46;nan;99969.50;6254254;28;20231;-74
2023/01/08 15:01:22;;;;;;;3.57;1.00;;;;;;;11.29;nan;99965.91;6262716;28;20227;-75
2023/01/08 15:04:43;;;;;;;1.60;1.10;;;;;;;11.47;nan;99963.97;6270184;28;20245;-74
2023/01/08 15:08:23;;;;;;;4.80;2.37;;;;;;;11.45;nan;99968.69;6254051;28;20238;-75
2023/01/08 15:11:52;;;;;;;3.50;1.20;;;;;;;11.49;nan;99959.25;6259785;28;20247;-75
2023/01/08 15:15:23;;;;;;;3.47;1.10;;;;;;;11.45;nan;99965.97;6273869;28;20596;-73
2023/01/08 15:18:47;;;;;;;1.20;1.00;;;;;;;11.43;nan;99964.44;6242937;28;20262;-75
2023/01/08 15:22:16;;;;;;;1.77;1.63;;;;;;;11.17;nan;99956.41;6257508;28;20231;-76
2023/01/08 15:25:37;;;;;;;2.60;2.47;;;;;;;11.38;nan;99954.13;6269307;28;20531;-74
2023/01/08 15:29:00;;;;;;;6.03;1.80;;;;;;;11.30;nan;99950.56;6247113;28;20239;-74
2023/01/08 15:32:23;;;;;;;2.37;1.60;;;;;;;11.01;nan;99940.19;6260505;28;20227;-75
2023/01/08 15:35:45;;;;;;;2.40;1.57;;;;;;;11.23;nan;99935.03;6265179;28;20671;-75
2023/01/08 15:39:06;;;;;;;1.50;1.40;;;;;;;11.06;nan;99944.06;6240871;28;20333;-73
2023/01/08 15:46:11;;;;;;;2.03;1.30;;;;;;;11.46;nan;99937.97;6249631;28;20235;-73
2023/01/08 15:49:33;;;;;;;2.67;1.80;;;;;;;11.16;nan;99927.75;6268036;28;20227;-73
2023/01/08 15:52:56;;;;;;;1.93;1.43;;;;;;;11.13;nan;99930.78;6263810;28;20231;-75
2023/01/08 15:56:17;;;;;;;5.93;2.90;;;;;;;11.17;nan;99924.06;6261770;28;20483;-74
2023/01/08 15:59:37;;;;;;;1.80;1.10;;;;;;;10.69;nan;99931.91;6241499;28;20612;-74
2023/01/08 16:02:59;;;;;;;4.03;1.63;;;;;;;11.05;nan;99926.22;6245194;28;20223;-74
2023/01/08 16:06:21;;;;;;;2.30;1.50;;;;;;;11.09;nan;99932.97;6261872;28;21084;-74
2023/01/08 16:09:42;;;;;;;1.07;1.00;;;;;;;10.99;nan;99929.53;6270157;28;20234;-73
2023/01/08 16:13:03;;;;;;;6.90;1.43;;;;;;;10.98;nan;99938.66;6251383;28;20247;-74
2023/01/08 16:16:24;;;;;;;4.00;1.57;;;;;;;10.71;nan;99940.69;6253768;28;20774;-74
2023/01/08 16:19:45;;;;;;;1.73;1.60;;;;;;;10.80;nan;99931.66;6250198;28;20235;-75